Latest Weather Observations for Redcliffe

IDQ60901

Issued at 2:11 pm EST Wednesday 26 April 2017 (issued every 10 minutes, with the page automatically refreshed every 10 minutes)

About weather observations | Map of Brisbane area stations | Latest observations for Brisbane area | Other Formats
Station Details ID: 040958 Name: REDCLIFFE Lat: -27.22 Lon: 153.09 Height: 12.6 m
Data from the previous 72 hours. | See also: Recent months at Redcliffe
Date/Time
EST
Temp
°C
App
Temp
°C
Dew
Point
°C
Rel
Hum
%
Delta-T
°C
Wind Press
QNH
hPa
Press
MSL
hPa
Rain since
9am
mm
Dir  Spd
km/h
Gust
km/h
Spd
kts
Gust
kts
26/02:00pm 23.9 25.0 17.9 69 3.8 NE 9 11 5 6 1009.7 1009.6 0.0
26/01:30pm 24.1 24.1 17.1 65 4.3 NE 13 17 7 9 1009.6 1009.5 0.0
26/01:00pm 24.3 25.3 17.8 67 4.1 NNW 9 13 5 7 1010.3 1010.2 0.0
26/12:30pm 23.4 24.5 18.1 72 3.3 NW 9 11 5 6 1011.0 1010.9 0.0
26/12:00pm 23.9 23.6 16.4 63 4.6 NNW 13 17 7 9 1011.4 1011.3 0.0
26/11:30am 24.3 24.9 16.8 63 4.6 NNW 9 13 5 7 1012.1 1012.0 0.0
26/11:00am 24.1 24.4 16.9 64 4.4 NW 11 17 6 9 1012.5 1012.4 0.0
26/10:30am 23.1 23.4 17.1 69 3.7 NNW 11 17 6 9 1013.1 1013.0 0.0
26/10:00am 23.0 22.9 17.0 69 3.7 NNW 13 17 7 9 1013.6 1013.5 0.0
26/09:30am 22.7 22.1 16.7 69 3.7 NW 15 19 8 10 1013.7 1013.6 0.0
26/09:00am 22.0 22.4 17.2 74 2.9 NNW 11 15 6 8 1013.7 1013.6 0.0
26/08:30am 20.7 20.8 16.5 77 2.5 NNW 11 17 6 9 1014.1 1014.0 0.0
26/08:00am 20.9 20.2 16.5 76 2.7 NNW 15 20 8 11 1014.0 1013.9 0.0
26/07:30am 21.1 21.1 17.3 79 2.3 NNW 13 19 7 10 1013.8 1013.7 0.0
26/07:00am 19.3 19.3 16.3 83 1.8 NNW 11 15 6 8 1013.8 1013.7 0.0
26/06:30am 18.2 18.0 15.6 85 1.5 WNW 11 13 6 7 1013.8 1013.7 0.0
26/06:00am 18.7 19.0 15.9 84 1.7 NNW 9 13 5 7 1013.7 1013.6 0.0
26/05:30am 18.8 18.4 16.2 85 1.6 N 13 17 7 9 1013.7 1013.6 0.0
26/05:00am 18.2 17.9 15.5 84 1.6 NNW 11 15 6 8 1013.4 1013.3 0.0
26/04:30am 18.8 18.3 16.0 84 1.7 NNW 13 17 7 9 1013.3 1013.2 0.0
26/04:00am 18.6 18.4 15.7 83 1.7 NW 11 13 6 7 1013.3 1013.2 0.0
26/03:30am 18.8 18.7 16.0 84 1.7 NNW 11 15 6 8 1013.3 1013.2 0.0
26/03:00am 18.7 19.0 16.1 85 1.5 NW 9 13 5 7 1013.4 1013.3 0.0
26/02:30am 18.7 18.7 16.3 86 1.4 NNW 11 13 6 7 1013.3 1013.2 0.0
26/02:00am 18.6 18.9 16.0 85 1.5 NNW 9 17 5 9 1013.4 1013.3 0.0
26/01:30am 19.4 19.1 16.4 83 1.8 NNW 13 15 7 8 1013.8 1013.7 0.0
26/01:00am 19.7 19.5 16.7 83 1.8 NNW 13 20 7 11 1014.0 1013.9 0.0
26/12:30am 19.8 18.9 16.8 83 1.8 NNW 17 20 9 11 1014.2 1014.1 0.0
26/12:00am 19.8 19.6 16.8 83 1.8 NNW 13 19 7 10 1014.4 1014.3 0.0
 
Date/Time
EST
Temp
°C
App
Temp
°C
Dew
Point
°C
Rel
Hum
%
Delta-T
°C
Wind Press
QNH
hPa
Press
MSL
hPa
Rain since
9am
mm
Dir  Spd
km/h
Gust
km/h
Spd
kts
Gust
kts
25/11:30pm 20.1 20.0 16.9 82 1.9 NNW 13 17 7 9 1014.7 1014.6 0.0
25/11:00pm 20.3 20.1 16.7 80 2.2 NNW 13 15 7 8 1015.1 1015.0 0.0
25/10:30pm 20.7 21.0 17.1 80 2.2 NNW 11 15 6 8 1015.3 1015.2 0.0
25/10:00pm 20.6 20.9 17.0 80 2.2 NNW 11 15 6 8 1015.6 1015.5 0.0
25/09:30pm 20.5 20.8 16.9 80 2.2 NW 11 15 6 8 1015.9 1015.8 0.0
25/09:00pm 20.8 21.2 17.2 80 2.2 NNW 11 13 6 7 1016.1 1016.0 0.0
25/08:30pm 21.3 21.7 17.3 78 2.5 NNW 11 13 6 7 1016.1 1016.0 0.0
25/08:00pm 21.6 22.4 17.4 77 2.6 N 9 11 5 6 1015.9 1015.8 0.0
25/07:30pm 21.9 21.3 17.5 76 2.7 N 17 19 9 10 1015.8 1015.7 0.0
25/07:00pm 21.8 21.0 17.2 75 2.8 NNE 17 19 9 10 1015.6 1015.5 0.0
25/06:30pm 22.0 21.0 16.7 72 3.2 NNE 17 19 9 10 1015.3 1015.2 0.0
25/06:00pm 22.2 20.8 16.5 70 3.5 NNE 19 22 10 12 1015.4 1015.3 0.0
25/05:30pm 22.3 21.3 16.6 70 3.5 NNE 17 20 9 11 1015.3 1015.2 0.0
25/05:00pm 22.5 20.8 16.3 68 3.8 NNE 20 24 11 13 1015.2 1015.1 0.0
25/04:30pm 22.9 21.4 16.4 67 4.0 NE 19 22 10 12 1014.9 1014.8 0.0
25/04:00pm 23.5 22.3 16.1 63 4.5 ENE 17 19 9 10 1015.0 1014.9 0.0
25/03:30pm 23.7 22.7 15.7 61 4.8 ENE 15 17 8 9 1015.1 1015.0 0.0
25/03:00pm 23.9 22.9 15.7 60 4.9 E 15 17 8 9 1015.2 1015.1 0.0
25/02:30pm 23.7 22.8 14.9 57 5.2 E 13 15 7 8 1015.4 1015.3 0.0
25/02:00pm 24.1 23.3 15.1 57 5.4 E 13 15 7 8 1015.7 1015.6 0.0
25/01:30pm 24.3 24.0 14.4 54 5.9 ESE 9 13 5 7 1016.0 1015.9 0.0
25/01:00pm 25.3 24.9 14.1 50 6.6 E 9 9 5 5 1016.5 1016.4 0.0
25/12:30pm 24.9 24.5 14.1 51 6.4 ESE 9 11 5 6 1017.1 1017.0 0.0
25/12:00pm 25.2 24.7 13.7 49 6.7 SE 9 11 5 6 1017.7 1017.6 0.0
25/11:30am 25.4 25.6 15.7 55 5.9 SSE 9 11 5 6 1018.2 1018.1 0.0
25/11:00am 24.3 23.8 15.0 56 5.6 SSE 11 11 6 6 1018.6 1018.5 0.0
25/10:30am 23.3 22.7 14.6 58 5.1 SSE 11 11 6 6 1018.8 1018.7 0.0
25/10:00am 23.2 22.5 15.3 61 4.7 S 13 13 7 7 1019.3 1019.2 0.0
25/09:30am 22.7 22.3 16.3 67 3.9 S 13 17 7 9 1019.5 1019.4 0.0
25/09:00am 21.9 21.4 16.0 69 3.5 S 13 17 7 9 1019.5 1019.4 0.0
25/08:30am 20.6 20.0 15.6 73 3.0 SSW 13 17 7 9 1019.5 1019.4 0.0
25/08:00am 19.4 17.8 15.1 76 2.5 SW 17 20 9 11 1019.4 1019.3 0.0
25/07:30am 18.4 17.1 14.9 80 2.0 SW 15 19 8 10 1019.4 1019.3 0.0
25/07:00am 17.3 15.6 14.8 85 1.4 SW 17 22 9 12 1019.0 1018.9 0.0
25/06:30am 16.6 15.6 14.6 88 1.1 SW 13 17 7 9 1018.9 1018.8 0.0
25/06:00am 16.3 15.2 14.3 88 1.1 SW 13 15 7 8 1018.7 1018.6 0.0
25/05:30am 16.2 15.1 14.2 88 1.1 SW 13 15 7 8 1018.5 1018.4 0.0
25/05:00am 16.4 15.7 14.2 87 1.2 SW 11 15 6 8 1018.1 1018.0 0.0
25/04:30am 16.7 15.6 14.3 86 1.4 SSW 13 17 7 9 1017.9 1017.8 0.0
25/04:00am 16.8 15.4 14.4 86 1.4 SSW 15 17 8 9 1018.1 1018.0 0.0
25/03:30am 16.9 15.9 14.5 86 1.4 SW 13 17 7 9 1018.5 1018.4 0.0
25/03:00am 17.1 16.1 14.7 86 1.4 SW 13 17 7 9 1018.5 1018.4 0.0
25/02:30am 17.3 16.4 14.9 86 1.4 SW 13 17 7 9 1018.5 1018.4 0.0
25/02:00am 17.3 16.4 14.9 86 1.4 SW 13 15 7 8 1018.5 1018.4 0.0
25/01:30am 17.4 16.6 15.0 86 1.4 SW 13 17 7 9 1018.8 1018.7 0.0
25/01:00am 17.5 17.1 15.1 86 1.4 SW 11 15 6 8 1019.1 1019.0 0.0
25/12:30am 17.6 17.2 15.2 86 1.4 SW 11 13 6 7 1019.3 1019.2 0.0
25/12:00am 17.8 17.4 15.2 85 1.5 SW 11 15 6 8 1019.7 1019.6 0.0
 
Date/Time
EST
Temp
°C
App
Temp
°C
Dew
Point
°C
Rel
Hum
%
Delta-T
°C
Wind Press
QNH
hPa
Press
MSL
hPa
Rain since
9am
mm
Dir  Spd
km/h
Gust
km/h
Spd
kts
Gust
kts
24/11:30pm 18.0 17.3 15.3 84 1.6 SW 13 15 7 8 1020.0 1019.9 0.0
24/11:00pm 18.2 17.9 15.5 84 1.6 SW 11 13 6 7 1020.1 1020.0 0.0
24/10:30pm 18.6 18.4 15.7 83 1.7 SW 11 15 6 8 1020.3 1020.2 0.0
24/10:00pm 18.8 18.1 15.5 81 1.9 S 13 15 7 8 1020.5 1020.4 0.0
24/09:30pm 19.2 18.8 15.3 78 2.3 SSE 11 15 6 8 1020.6 1020.5 0.0
24/09:00pm 20.0 18.9 15.2 74 2.8 SE 15 17 8 9 1020.5 1020.4 0.0
24/08:30pm 20.6 19.5 15.2 71 3.2 ESE 15 17 8 9 1020.5 1020.4 0.0
24/08:00pm 21.0 19.8 15.1 69 3.5 SE 15 17 8 9 1020.5 1020.4 0.0
24/07:30pm 21.5 19.9 15.1 67 3.8 SE 17 17 9 9 1020.3 1020.2 0.0
24/07:00pm 21.8 19.8 14.9 65 4.1 SE 19 20 10 11 1020.0 1019.9 0.0
24/06:30pm 21.6 20.0 16.1 71 3.3 SE 19 24 10 13 1019.7 1019.6 0.0
24/06:00pm 21.8 20.0 15.6 68 3.7 SE 19 22 10 12 1019.4 1019.3 0.0
24/05:30pm 22.1 20.1 15.5 66 3.9 SE 20 24 11 13 1019.1 1019.0 0.0
24/05:00pm 22.5 21.1 15.6 65 4.1 SE 17 19 9 10 1018.9 1018.8 0.0
24/04:30pm 22.9 22.2 16.4 67 4.0 ESE 15 20 8 11 1018.7 1018.6 0.0
24/04:00pm 22.9 22.5 16.2 66 4.1 ESE 13 15 7 8 1018.7 1018.6 0.0
24/03:30pm 23.0 22.1 15.8 64 4.3 ESE 15 17 8 9 1018.7 1018.6 0.0
24/03:00pm 22.7 21.6 16.3 67 3.9 E 17 20 9 11 1018.7 1018.6 0.0
24/02:30pm 22.1 20.5 16.4 70 3.5 E 20 24 11 13 1018.7 1018.6 0.0
24/02:00pm 22.4 20.4 16.4 69 3.6 E 22 26 12 14 1018.9 1018.8 0.0
24/01:30pm 23.4 21.7 14.7 58 5.2 ESE 17 19 9 10 1019.3 1019.2 0.0
24/01:00pm 24.2 23.7 15.9 59 5.0 SE 13 17 7 9 1019.4 1019.3 0.0
24/12:30pm 23.6 21.6 14.9 58 5.2 SE 19 22 10 12 1019.7 1019.6 0.0
24/12:00pm 23.8 22.0 16.1 62 4.7 SE 20 24 11 13 1020.0 1019.9 0.0
24/11:30am 24.1 22.5 16.4 62 4.7 SSE 20 24 11 13 1020.6 1020.5 0.0
24/11:00am 23.4 21.5 15.2 60 4.9 SSE 19 22 10 12 1021.2 1021.1 0.0
24/10:30am 23.8 22.6 16.1 62 4.7 S 17 19 9 10 1021.5 1021.4 0.0
24/10:00am 23.6 21.8 15.4 60 4.9 S 19 20 10 11 1021.6 1021.5 0.0
24/09:30am 23.2 22.0 16.0 64 4.4 S 17 24 9 13 1021.7 1021.6 0.0
24/09:00am 21.9 20.1 14.5 63 4.3 S 17 26 9 14 1021.7 1021.6 0.0
24/08:30am 21.3 19.3 14.9 67 3.8 SSW 19 24 10 13 1021.5 1021.4 0.0
24/08:00am 20.0 18.9 15.2 74 2.8 SSW 15 19 8 10 1021.5 1021.4 0.0
24/07:30am 19.9 18.3 15.1 74 2.8 SSW 17 22 9 12 1021.0 1020.9 0.0
24/07:00am 18.3 17.0 14.8 80 2.0 SSW 15 19 8 10 1020.8 1020.7 0.0
24/06:30am 17.7 16.4 14.8 83 1.7 SSW 15 20 8 11 1020.5 1020.4 0.0
24/06:00am 17.8 16.9 14.9 83 1.7 SSW 13 17 7 9 1020.3 1020.2 0.0
24/05:30am 18.1 17.3 15.2 83 1.7 SSW 13 19 7 10 1020.1 1020.0 0.0
24/05:00am 18.2 17.5 15.5 84 1.6 SSW 13 19 7 10 1019.8 1019.7 0.0
24/04:30am 18.4 17.7 15.5 83 1.7 SSW 13 17 7 9 1019.8 1019.7 0.0
24/04:00am 18.5 17.9 15.7 84 1.6 SW 13 15 7 8 1019.8 1019.7 0.0
24/03:30am 18.2 17.6 15.6 85 1.5 SSW 13 17 7 9 1020.0 1019.9 0.0
24/03:00am 18.0 18.1 15.6 86 1.4 SW 9 15 5 8 1020.2 1020.1 0.0
24/02:30am 18.3 17.3 15.7 85 1.5 SSW 15 19 8 10 1020.3 1020.2 0.0
24/02:00am 18.3 17.7 15.6 84 1.6 SW 13 15 7 8 1020.6 1020.5 0.0
24/01:30am 18.3 18.4 15.6 84 1.6 SW 9 13 5 7 1020.8 1020.7 0.0
24/01:00am 18.5 17.6 15.9 85 1.5 SSW 15 19 8 10 1020.8 1020.7 0.0
24/12:30am 18.5 18.0 15.9 85 1.5 SW 13 15 7 8 1021.2 1021.1 0.0
24/12:00am 18.5 18.0 15.9 85 1.5 SW 13 15 7 8 1021.5 1021.4 0.0
 
Date/Time
EST
Temp
°C
App
Temp
°C
Dew
Point
°C
Rel
Hum
%
Delta-T
°C
Wind Press
QNH
hPa
Press
MSL
hPa
Rain since
9am
mm
Dir  Spd
km/h
Gust
km/h
Spd
kts
Gust
kts
23/11:30pm 18.7 18.2 15.9 84 1.7 WSW 13 13 7 7 1021.9 1021.8 0.0
23/11:00pm 19.0 18.1 15.9 82 1.8 SSE 15 19 8 10 1021.8 1021.7 0.0
23/10:30pm 19.8 18.7 16.3 80 2.1 SE 17 19 9 10 1021.9 1021.8 0.0
23/10:00pm 20.4 19.2 16.2 77 2.5 SE 17 19 9 10 1022.0 1021.9 0.0
23/09:30pm 21.0 19.6 16.6 76 2.7 SE 19 22 10 12 1022.0 1021.9 0.0
23/09:00pm 21.0 19.6 16.6 76 2.7 SE 19 22 10 12 1022.1 1022.0 0.0
23/08:30pm 21.2 19.7 16.8 76 2.7 SE 20 26 11 14 1022.0 1021.9 0.0
23/08:00pm 21.3 19.8 16.7 75 2.8 SE 20 24 11 13 1021.8 1021.7 0.0
23/07:30pm 21.4 19.5 16.6 74 2.9 SE 22 26 12 14 1021.6 1021.5 0.0
23/07:00pm 21.6 19.9 16.3 72 3.2 SE 20 26 11 14 1021.4 1021.3 0.0
23/06:30pm 21.7 19.4 15.8 69 3.5 SE 22 26 12 14 1021.2 1021.1 0.0
23/06:00pm 21.8 20.6 16.1 70 3.4 SE 17 20 9 11 1020.9 1020.8 0.0
23/05:30pm 22.1 21.4 16.4 70 3.5 SE 15 17 8 9 1020.7 1020.6 0.0
23/05:00pm 22.5 20.9 16.1 67 3.9 SE 19 20 10 11 1020.5 1020.4 0.0
23/04:30pm 22.6 21.0 16.4 68 3.8 ESE 20 26 11 14 1020.2 1020.1 0.0
23/04:00pm 22.7 20.8 15.8 65 4.1 SE 20 26 11 14 1020.1 1020.0 0.0
23/03:30pm 23.1 20.5 15.9 64 4.3 SE 24 28 13 15 1019.9 1019.8 0.0
23/03:00pm 23.3 21.3 15.6 62 4.6 SE 20 26 11 14 1020.0 1019.9 0.0
23/02:30pm 24.2 22.4 17.0 64 4.4 ESE 22 28 12 15 1020.1 1020.0 0.0

Latest Capital City Observations: Canberra | Sydney | Melbourne | Brisbane | Adelaide | Perth | Hobart | Darwin

Other Formats:

Comma delimited format used in spreadsheet applications
http://www.bom.gov.au/fwo/IDQ60901/IDQ60901.95591.axf

JavaScript Object Notation format (JSON) in row-major order
http://www.bom.gov.au/fwo/IDQ60901/IDQ60901.95591.json